Caroga, New York
Current Conditions -  °F | °C
As of 2:15 AM on Sunday 23 Nov 2014 (Local Time) from KNY0 Reporting Station
Overcast Overcast  
Wind Chill: 29°   Ceiling: 2200
Heat Index: 37°   Visibility: 5mi
Dew Point: 35°   Wind: 12mph
Humidity: 93%   Direction: 240°WSW
Pressure: 30.05"   Gusts: NA
Location:  43.2783°N, 74.5481°W
Report Text: KNY0 230715Z AUTO 24010KT 5SM OVC022 03/02 A3005 RMK AO2 P0001 T00260015
Loading
Personal Weather Stations






























Interactive Weather Map New forecast layout! Learn more

10-Day Weather Forecast

Advertisements
Track Severe Weather on mobile